createdAt,value
2022-11-24T00:02:11.166Z,2.30
2022-11-24T00:04:41.707Z,2.22
2022-11-24T00:07:11.926Z,3.28
2022-11-24T00:09:42.402Z,4.95
2022-11-24T00:12:12.662Z,3.58
2022-11-24T00:14:42.740Z,3.42
2022-11-24T00:17:12.815Z,4.03
2022-11-24T00:19:43.250Z,5.25
2022-11-24T00:22:13.412Z,3.63
2022-11-24T00:24:43.464Z,3.20
2022-11-24T00:27:13.551Z,2.80
2022-11-24T00:29:43.566Z,6.82
2022-11-24T00:32:13.570Z,3.70
2022-11-24T00:34:43.817Z,5.25
2022-11-24T00:37:13.833Z,6.28
2022-11-24T00:39:43.901Z,5.03
2022-11-24T00:42:15.564Z,4.28
2022-11-24T00:44:45.903Z,3.35
2022-11-24T00:47:16.777Z,4.75
2022-11-24T00:49:47.450Z,4.70
2022-11-24T00:52:17.586Z,4.72
2022-11-24T00:54:47.623Z,5.43
2022-11-24T00:57:17.631Z,3.30
2022-11-24T00:59:48.010Z,5.43
2022-11-24T01:02:18.909Z,4.88
2022-11-24T01:04:50.058Z,7.40
2022-11-24T01:07:20.786Z,5.85
2022-11-24T01:09:51.771Z,5.53
2022-11-24T01:12:21.863Z,1.58
2022-11-24T01:14:51.938Z,3.42
2022-11-24T01:17:22.620Z,3.95
2022-11-24T01:19:53.464Z,5.63
2022-11-24T01:22:23.828Z,4.20
2022-11-24T01:24:53.924Z,6.03
2022-11-24T01:27:23.997Z,3.05
2022-11-24T01:29:54.130Z,6.38
2022-11-24T01:32:24.725Z,3.38
2022-11-24T01:34:54.859Z,8.98
2022-11-24T01:37:25.201Z,12.02
2022-11-24T01:39:55.791Z,32.60
2022-11-24T01:42:26.001Z,27.67
2022-11-24T01:45:43.943Z,27.95
2022-11-24T01:48:24.456Z,31.30
2022-11-24T01:54:02.526Z,25.05
2022-11-24T01:56:32.738Z,47.70
2022-11-24T01:59:03.271Z,20.10
2022-11-24T02:01:37.597Z,23.45
2022-11-24T02:04:10.688Z,19.17
2022-11-24T02:06:41.072Z,20.63
2022-11-24T02:09:22.440Z,18.98
2022-11-24T02:11:52.501Z,17.85
2022-11-24T02:14:22.533Z,22.55
2022-11-24T02:16:54.181Z,23.30
2022-11-24T02:19:41.952Z,31.90
2022-11-24T02:22:29.803Z,28.35
2022-11-24T02:25:12.879Z,28.13
2022-11-24T02:27:45.316Z,29.02
2022-11-24T02:30:18.422Z,18.80
2022-11-24T02:32:48.671Z,24.20
2022-11-24T02:35:18.728Z,33.75
2022-11-24T02:37:48.821Z,25.20
2022-11-24T02:40:20.761Z,23.60
2022-11-24T02:42:51.414Z,21.08
2022-11-24T02:45:21.561Z,20.83
2022-11-24T02:47:51.761Z,21.65
2022-11-24T02:50:21.824Z,16.15
2022-11-24T02:52:51.869Z,22.35
2022-11-24T02:55:21.940Z,22.05
2022-11-24T02:57:52.065Z,21.85
2022-11-24T03:00:22.296Z,22.50
2022-11-24T03:02:52.410Z,11.88
2022-11-24T03:05:22.473Z,17.02
2022-11-24T03:07:52.748Z,13.73
2022-11-24T03:10:23.384Z,17.05
2022-11-24T03:12:53.928Z,11.15
2022-11-24T03:15:24.935Z,19.48
2022-11-24T03:17:57.756Z,12.52
2022-11-24T03:20:27.875Z,14.30
2022-11-24T03:22:58.726Z,11.05
2022-11-24T03:25:28.811Z,16.63
2022-11-24T03:27:59.595Z,17.13
2022-11-24T03:30:29.710Z,22.35
2022-11-24T03:33:00.423Z,12.07
2022-11-24T03:35:30.633Z,12.90
2022-11-24T03:38:00.714Z,17.90
2022-11-24T03:40:30.796Z,16.85
2022-11-24T03:43:00.936Z,13.75
2022-11-24T03:45:45.376Z,12.60
2022-11-24T03:48:17.119Z,10.32
2022-11-24T03:50:57.382Z,10.88
2022-11-24T03:53:28.525Z,10.55
2022-11-24T03:55:58.669Z,9.88
2022-11-24T03:58:28.738Z,8.90
2022-11-24T04:00:59.423Z,6.18
2022-11-24T04:03:29.750Z,6.85
2022-11-24T04:06:00.191Z,8.15
2022-11-24T04:08:30.222Z,8.27
2022-11-24T04:11:00.454Z,6.13
2022-11-24T04:13:30.791Z,6.45
2022-11-24T04:16:00.913Z,7.03
2022-11-24T04:18:31.065Z,6.47
2022-11-24T04:21:01.162Z,7.10
2022-11-24T04:23:31.263Z,5.07
2022-11-24T04:26:01.356Z,6.03
2022-11-24T04:28:31.412Z,6.43
2022-11-24T04:31:05.222Z,7.80
2022-11-24T04:33:35.432Z,7.20
2022-11-24T04:36:05.787Z,5.50
2022-11-24T04:39:25.723Z,5.13
2022-11-24T04:41:26.218Z,7.95
2022-11-24T04:43:56.359Z,5.28
2022-11-24T04:46:26.494Z,4.00
2022-11-24T04:48:56.702Z,19.08
2022-11-24T04:51:26.817Z,10.40
2022-11-24T04:53:56.905Z,7.93
2022-11-24T04:56:34.490Z,11.55
2022-11-24T04:59:08.178Z,9.75
2022-11-24T05:01:39.137Z,15.10
2022-11-24T05:04:10.684Z,9.00
2022-11-24T05:06:41.108Z,10.63
2022-11-24T05:09:11.269Z,12.68
2022-11-24T05:11:41.616Z,10.98
2022-11-24T05:14:11.747Z,13.23
2022-11-24T05:16:41.460Z,8.18
2022-11-24T05:19:11.505Z,10.27
2022-11-24T05:21:41.090Z,6.68
2022-11-24T05:24:11.883Z,9.68
2022-11-24T05:26:41.944Z,6.70
2022-11-24T05:29:11.631Z,11.95
2022-11-24T05:31:41.108Z,10.93
2022-11-24T05:34:10.784Z,6.68
2022-11-24T05:36:55.800Z,6.40
2022-11-24T05:39:25.842Z,6.82
2022-11-24T05:41:55.376Z,7.68
2022-11-24T05:44:25.335Z,7.82
2022-11-24T05:46:55.016Z,7.80
2022-11-24T05:49:26.011Z,6.43
2022-11-24T05:51:55.465Z,5.70
2022-11-24T05:54:25.404Z,8.48
2022-11-24T05:56:55.041Z,5.85
2022-11-24T05:59:24.949Z,9.15
2022-11-24T06:01:54.643Z,5.90
2022-11-24T06:04:24.635Z,9.45
2022-11-24T06:06:54.654Z,6.85
2022-11-24T06:09:24.649Z,7.68
2022-11-24T06:11:54.572Z,7.80
2022-11-24T06:14:24.919Z,5.20
2022-11-24T06:16:54.589Z,6.65
2022-11-24T06:19:24.454Z,5.35
2022-11-24T06:21:54.484Z,4.30
2022-11-24T06:24:24.612Z,4.03
2022-11-24T06:26:54.537Z,3.78
2022-11-24T06:29:24.067Z,8.45
2022-11-24T06:31:53.651Z,5.47
2022-11-24T06:34:23.662Z,10.27
2022-11-24T06:36:53.628Z,9.55
2022-11-24T06:39:23.145Z,9.55
2022-11-24T06:41:53.481Z,7.65
2022-11-24T06:44:23.646Z,7.60
2022-11-24T06:46:53.532Z,7.40
2022-11-24T06:49:23.496Z,6.38
2022-11-24T06:51:53.476Z,10.43
2022-11-24T06:54:23.289Z,9.38
2022-11-24T06:56:58.558Z,7.05
2022-11-24T06:59:28.870Z,6.50
2022-11-24T07:01:58.916Z,7.97
2022-11-24T07:04:28.999Z,7.88
2022-11-24T07:06:59.701Z,8.18
2022-11-24T07:09:34.538Z,7.13
2022-11-24T07:12:04.769Z,12.13
2022-11-24T07:14:34.599Z,10.50
2022-11-24T07:17:05.991Z,10.45
2022-11-24T07:19:36.056Z,9.32
2022-11-24T07:22:07.564Z,43.40
2022-11-24T07:24:37.773Z,36.75
2022-11-24T07:27:07.391Z,27.45
2022-11-24T07:29:37.387Z,14.18
2022-11-24T07:32:07.525Z,15.48
2022-11-24T07:34:37.243Z,28.80
2022-11-24T07:37:06.936Z,21.45
2022-11-24T07:39:36.814Z,16.60
2022-11-24T07:42:07.540Z,11.40
2022-11-24T07:44:37.470Z,10.88
2022-11-24T07:47:07.764Z,5.00
2022-11-24T07:49:37.730Z,7.80
2022-11-24T07:52:08.538Z,6.43
2022-11-24T07:54:38.574Z,4.05
2022-11-24T07:57:08.658Z,4.65
2022-11-24T07:59:38.644Z,2.42
2022-11-24T08:02:08.287Z,2.60
2022-11-24T08:04:39.206Z,5.15
2022-11-24T08:07:09.426Z,4.88
2022-11-24T08:09:39.585Z,2.83
2022-11-24T08:12:09.677Z,8.05
2022-11-24T08:14:39.673Z,7.43
2022-11-24T08:17:09.599Z,5.85
2022-11-24T08:19:40.033Z,6.57
2022-11-24T08:22:10.094Z,5.45
2022-11-24T08:24:41.178Z,5.18
2022-11-24T08:27:11.102Z,2.42
2022-11-24T08:29:40.733Z,5.57
2022-11-24T08:32:11.095Z,2.47
2022-11-24T08:34:41.104Z,2.20
2022-11-24T08:37:11.117Z,2.30
2022-11-24T08:39:41.186Z,2.85
2022-11-24T08:42:11.209Z,2.08
2022-11-24T08:44:41.006Z,3.03
2022-11-24T08:47:10.447Z,2.20
2022-11-24T08:49:40.389Z,1.02
2022-11-24T08:52:09.965Z,0.60
2022-11-24T08:54:40.052Z,1.35
2022-11-24T08:57:10.053Z,0.82
2022-11-24T08:59:40.077Z,0.68
2022-11-24T09:02:16.258Z,0.57
2022-11-24T09:04:46.443Z,0.80
2022-11-24T09:07:16.019Z,0.40
2022-11-24T09:09:45.982Z,0.40
2022-11-24T09:12:15.612Z,0.80
2022-11-24T09:14:45.619Z,0.68
2022-11-24T09:17:15.657Z,1.10
2022-11-24T09:19:45.687Z,3.28
2022-11-24T09:22:15.370Z,1.88
2022-11-24T09:24:45.298Z,2.83
2022-11-24T09:27:15.267Z,3.90
2022-11-24T09:29:45.288Z,2.65
2022-11-24T09:32:15.346Z,7.13
2022-11-24T09:34:46.451Z,3.85
2022-11-24T09:37:16.323Z,5.47
2022-11-24T09:39:45.858Z,5.57
2022-11-24T09:42:21.490Z,3.80
2022-11-24T09:45:13.088Z,3.50
2022-11-24T09:48:00.377Z,4.97
2022-11-24T09:50:38.091Z,2.35
2022-11-24T09:53:26.811Z,3.88
2022-11-24T09:56:00.681Z,1.17
2022-11-24T09:58:52.311Z,1.60
2022-11-24T10:01:43.769Z,4.60
2022-11-24T10:04:27.667Z,0.98
2022-11-24T10:07:00.760Z,1.73
2022-11-24T10:12:28.960Z,1.58
2022-11-24T10:15:26.697Z,0.25
2022-11-24T10:18:23.924Z,0.40
2022-11-24T10:21:17.930Z,0.57
2022-11-24T10:24:18.569Z,0.85
2022-11-24T10:27:11.466Z,0.30
2022-11-24T10:29:42.201Z,0.47
2022-11-24T10:32:21.994Z,0.82
2022-11-24T10:34:52.100Z,0.55
2022-11-24T10:37:45.064Z,0.30
2022-11-24T10:40:56.575Z,0.35
2022-11-24T10:43:15.273Z,0.75
2022-11-24T10:45:44.924Z,0.77
2022-11-24T10:48:26.107Z,0.30
2022-11-24T10:50:59.474Z,0.55
2022-11-24T10:56:01.116Z,0.47
2022-11-24T10:58:37.421Z,0.63
2022-11-24T11:01:17.560Z,0.40
2022-11-24T11:04:20.745Z,0.40
2022-11-24T11:06:50.765Z,0.30
2022-11-24T11:09:22.648Z,0.30
2022-11-24T11:11:54.708Z,1.05
2022-11-24T11:14:32.593Z,0.25
2022-11-24T11:17:02.963Z,0.40
2022-11-24T11:19:50.498Z,0.50
2022-11-24T11:22:34.370Z,0.30
2022-11-24T11:25:13.103Z,0.40
2022-11-24T11:27:43.324Z,0.40
2022-11-24T11:36:15.312Z,0.22
2022-11-24T11:38:45.257Z,0.55
2022-11-24T11:41:38.593Z,0.10
2022-11-24T11:44:45.403Z,0.47
2022-11-24T11:47:44.742Z,0.25
2022-11-24T11:50:15.615Z,0.20
2022-11-24T11:52:49.963Z,0.40
2022-11-24T11:55:19.785Z,1.48
2022-11-24T11:58:13.216Z,0.40
2022-11-24T12:00:48.364Z,1.90
2022-11-24T12:03:54.240Z,3.38
2022-11-24T12:06:49.339Z,2.58
2022-11-24T12:09:45.092Z,5.60
2022-11-24T12:12:35.391Z,4.03
2022-11-24T12:15:23.165Z,18.23
2022-11-24T12:18:06.462Z,6.80
2022-11-24T12:21:26.405Z,3.40
2022-11-24T12:24:38.417Z,5.78
2022-11-24T12:27:26.963Z,2.60
2022-11-24T12:30:00.349Z,1.98
2022-11-24T12:32:39.677Z,5.70
2022-11-24T12:35:40.498Z,3.08
2022-11-24T12:38:31.392Z,3.05
2022-11-24T12:41:41.233Z,2.97
2022-11-24T12:44:51.474Z,1.92
2022-11-24T12:47:33.457Z,1.55
2022-11-24T12:50:22.582Z,3.53
2022-11-24T12:53:01.840Z,2.00
2022-11-24T12:55:34.387Z,1.30
2022-11-24T12:58:10.969Z,1.70
2022-11-24T13:00:59.978Z,3.03
2022-11-24T13:03:44.615Z,1.75
2022-11-24T13:06:32.393Z,1.55
2022-11-24T13:09:10.094Z,4.05
2022-11-24T13:12:00.599Z,1.52
2022-11-24T13:14:33.731Z,2.50
2022-11-24T13:17:35.143Z,2.30
2022-11-24T13:20:21.494Z,1.30
2022-11-24T13:23:15.522Z,1.65
2022-11-24T13:25:45.258Z,1.98
2022-11-24T13:29:05.698Z,1.88
2022-11-24T13:31:39.375Z,1.65
2022-11-24T13:34:43.940Z,1.50
2022-11-24T13:37:34.803Z,1.40
2022-11-24T13:40:27.681Z,1.42
2022-11-24T13:42:58.380Z,2.30
2022-11-24T13:45:44.296Z,2.35
2022-11-24T13:48:23.584Z,1.42
2022-11-24T13:50:54.746Z,1.92
2022-11-24T13:53:46.895Z,2.50
2022-11-24T13:56:16.805Z,1.77
2022-11-24T13:59:17.120Z,2.58
2022-11-24T14:01:47.545Z,2.08
2022-11-24T14:07:19.707Z,1.90
2022-11-24T14:09:52.692Z,2.20
2022-11-24T14:12:26.061Z,2.25
2022-11-24T14:14:59.213Z,2.38
2022-11-24T14:17:29.287Z,1.67
2022-11-24T14:19:59.635Z,1.80
2022-11-24T14:22:58.261Z,1.90
2022-11-24T14:25:33.092Z,1.85
2022-11-24T14:28:02.902Z,1.80
2022-11-24T14:30:32.349Z,4.45
2022-11-24T14:33:03.438Z,1.73
2022-11-24T14:35:37.522Z,1.30
2022-11-24T14:38:07.942Z,1.90
2022-11-24T14:40:42.530Z,1.10
2022-11-24T14:43:32.866Z,1.88
2022-11-24T14:46:08.701Z,1.98
2022-11-24T14:48:48.160Z,1.80
2022-11-24T14:51:25.467Z,1.70
2022-11-24T14:54:03.021Z,2.45
2022-11-24T14:56:39.856Z,1.60
2022-11-24T14:59:26.681Z,2.30
2022-11-24T15:01:58.013Z,1.95
2022-11-24T15:07:32.353Z,1.77
2022-11-24T15:10:02.552Z,1.35
2022-11-24T15:12:43.508Z,1.35
2022-11-24T15:15:16.116Z,1.65
2022-11-24T15:17:52.964Z,1.52
2022-11-24T15:20:45.914Z,1.40
2022-11-24T15:23:34.917Z,2.13
2022-11-24T15:26:05.489Z,1.58
2022-11-24T15:28:35.145Z,1.48
2022-11-24T15:31:06.681Z,1.48
2022-11-24T15:33:36.432Z,2.78
2022-11-24T15:36:06.331Z,3.00
2022-11-24T15:38:36.264Z,2.63
2022-11-24T15:41:14.166Z,0.98
2022-11-24T15:43:44.247Z,1.80
2022-11-24T15:46:14.429Z,1.55
2022-11-24T15:48:44.599Z,1.50
2022-11-24T15:51:15.304Z,1.67
2022-11-24T15:53:46.419Z,1.30
2022-11-24T15:56:27.325Z,1.73
2022-11-24T15:58:56.807Z,1.42
2022-11-24T16:01:28.789Z,1.60
2022-11-24T16:03:58.416Z,1.42
2022-11-24T16:06:27.856Z,1.48
2022-11-24T16:08:58.826Z,1.90
2022-11-24T16:11:28.894Z,1.65
2022-11-24T16:13:58.488Z,1.42
2022-11-24T16:16:28.551Z,1.00
2022-11-24T16:18:58.537Z,1.50
2022-11-24T16:21:28.142Z,1.73
2022-11-24T16:23:58.159Z,1.45
2022-11-24T16:26:28.154Z,1.27
2022-11-24T16:28:58.146Z,1.27
2022-11-24T16:31:28.883Z,2.60
2022-11-24T16:33:58.465Z,1.42
2022-11-24T16:36:29.435Z,1.88
2022-11-24T16:39:00.592Z,2.05
2022-11-24T16:41:30.545Z,2.58
2022-11-24T16:44:00.611Z,1.50
2022-11-24T16:46:30.300Z,1.95
2022-11-24T16:49:04.291Z,1.80
2022-11-24T16:51:35.085Z,1.55
2022-11-24T16:54:05.494Z,2.65
2022-11-24T16:56:35.874Z,1.80
2022-11-24T16:59:05.806Z,1.98
2022-11-24T17:01:35.980Z,1.75
2022-11-24T17:04:11.039Z,2.33
2022-11-24T17:06:42.795Z,2.35
2022-11-24T17:09:13.753Z,1.98
2022-11-24T17:11:43.990Z,2.20
2022-11-24T17:14:14.579Z,1.40
2022-11-24T17:16:44.301Z,1.40
2022-11-24T17:19:14.799Z,1.30
2022-11-24T17:21:44.820Z,1.50
2022-11-24T17:24:18.715Z,1.30
2022-11-24T17:26:50.519Z,1.85
2022-11-24T17:29:21.063Z,1.42
2022-11-24T17:31:51.188Z,1.08
2022-11-24T17:34:21.673Z,1.40
2022-11-24T17:36:51.655Z,1.15
2022-11-24T17:39:24.893Z,1.20
2022-11-24T17:41:55.029Z,1.13
2022-11-24T17:44:31.595Z,1.33
2022-11-24T17:47:01.735Z,1.23
2022-11-24T17:49:32.131Z,0.65
2022-11-24T17:52:02.256Z,1.17
2022-11-24T17:54:45.998Z,1.20
2022-11-24T17:57:16.298Z,1.10
2022-11-24T17:59:46.820Z,0.95
2022-11-24T18:02:17.229Z,0.82
2022-11-24T18:04:46.774Z,0.32
2022-11-24T18:07:16.281Z,0.80
2022-11-24T18:09:46.365Z,0.80
2022-11-24T18:12:17.911Z,0.65
2022-11-24T18:14:47.684Z,1.10
2022-11-24T18:17:17.119Z,0.90
2022-11-24T18:19:46.582Z,0.57
2022-11-24T18:22:16.686Z,1.40
2022-11-24T18:24:48.496Z,0.85
2022-11-24T18:27:18.090Z,0.85
2022-11-24T18:29:49.895Z,0.88
2022-11-24T18:32:23.569Z,0.73
2022-11-24T18:34:53.257Z,0.63
2022-11-24T18:37:23.183Z,0.70
2022-11-24T18:39:53.205Z,1.15
2022-11-24T18:42:23.094Z,0.90
2022-11-24T18:44:54.166Z,1.10
2022-11-24T18:47:24.516Z,1.23
2022-11-24T18:49:54.767Z,1.02
2022-11-24T18:52:24.336Z,1.25
2022-11-24T18:54:53.834Z,1.80
2022-11-24T18:57:23.778Z,1.63
2022-11-24T18:59:53.647Z,0.90
2022-11-24T19:02:26.802Z,1.25
2022-11-24T19:04:56.895Z,1.05
2022-11-24T19:07:26.454Z,1.08
2022-11-24T19:09:57.215Z,1.20
2022-11-24T19:12:27.830Z,0.90
2022-11-24T19:14:58.547Z,0.73
2022-11-24T19:17:28.065Z,1.30
2022-11-24T19:19:57.760Z,0.73
2022-11-24T19:22:27.689Z,0.50
2022-11-24T19:24:57.720Z,0.55
2022-11-24T19:27:27.791Z,1.10
2022-11-24T19:29:57.392Z,1.23
2022-11-24T19:32:26.857Z,1.42
2022-11-24T19:34:56.791Z,1.10
2022-11-24T19:37:26.362Z,0.70
2022-11-24T19:39:56.300Z,0.93
2022-11-24T19:42:26.281Z,1.88
2022-11-24T19:44:56.847Z,0.90
2022-11-24T19:47:27.062Z,0.63
2022-11-24T19:49:57.722Z,0.52
2022-11-24T19:52:27.263Z,2.03
2022-11-24T19:54:57.331Z,0.75
2022-11-24T19:57:27.476Z,1.92
2022-11-24T19:59:57.146Z,0.73
2022-11-24T20:02:28.697Z,0.60
2022-11-24T20:04:58.903Z,0.60
2022-11-24T20:07:28.941Z,0.70
2022-11-24T20:10:03.032Z,0.57
2022-11-24T20:12:36.818Z,0.30
2022-11-24T20:15:07.769Z,0.50
2022-11-24T20:17:37.699Z,0.47
2022-11-24T20:20:08.350Z,1.63
2022-11-24T20:22:38.352Z,0.80
2022-11-24T20:25:08.903Z,0.50
2022-11-24T20:27:38.415Z,1.35
2022-11-24T20:30:08.690Z,0.50
2022-11-24T20:32:38.688Z,0.45
2022-11-24T20:35:11.214Z,0.68
2022-11-24T20:37:45.313Z,0.60
2022-11-24T20:40:16.060Z,1.35
2022-11-24T20:42:46.157Z,0.57
2022-11-24T20:45:16.783Z,0.57
2022-11-24T20:47:46.294Z,0.43
2022-11-24T20:50:16.530Z,0.40
2022-11-24T20:52:46.551Z,0.75
2022-11-24T20:55:16.315Z,0.80
2022-11-24T20:57:45.788Z,0.63
2022-11-24T21:00:16.662Z,1.50
2022-11-24T21:02:47.786Z,0.75
2022-11-24T21:05:17.705Z,0.70
2022-11-24T21:07:47.728Z,0.70
2022-11-24T21:10:18.581Z,0.50
2022-11-24T21:12:48.572Z,1.23
2022-11-24T21:15:18.649Z,0.50
2022-11-24T21:17:49.234Z,1.25
2022-11-24T21:20:20.283Z,1.38
2022-11-24T21:22:49.921Z,0.75
2022-11-24T21:25:20.177Z,1.23
2022-11-24T21:27:50.360Z,0.60
2022-11-24T21:30:20.547Z,0.88
2022-11-24T21:32:50.845Z,1.15
2022-11-24T21:35:21.445Z,0.98
2022-11-24T21:37:51.429Z,0.82
2022-11-24T21:40:22.246Z,1.45
2022-11-24T21:42:52.510Z,0.68
2022-11-24T21:45:22.130Z,0.90
2022-11-24T21:47:55.751Z,0.55
2022-11-24T21:53:00.582Z,2.20
2022-11-24T21:55:33.657Z,1.50
2022-11-24T21:58:06.492Z,1.20
2022-11-24T22:00:36.109Z,0.93
2022-11-24T22:03:06.101Z,1.08
2022-11-24T22:05:35.670Z,0.98
2022-11-24T22:08:05.590Z,0.70
2022-11-24T22:10:35.461Z,1.33
2022-11-24T22:13:08.679Z,0.80
2022-11-24T22:15:38.288Z,2.97
2022-11-24T22:18:07.893Z,0.88
2022-11-24T22:20:37.878Z,1.10
2022-11-24T22:23:07.925Z,1.25
2022-11-24T22:25:37.541Z,1.35
2022-11-24T22:28:07.278Z,1.48
2022-11-24T22:30:37.405Z,1.20
2022-11-24T22:33:07.469Z,0.90
2022-11-24T22:35:37.027Z,1.15
2022-11-24T22:38:07.007Z,1.27
2022-11-24T22:40:36.664Z,1.30
2022-11-24T22:43:06.676Z,2.05
2022-11-24T22:45:37.077Z,1.67
2022-11-24T22:48:07.436Z,1.38
2022-11-24T22:50:37.435Z,1.30
2022-11-24T22:53:06.930Z,1.48
2022-11-24T22:55:36.595Z,1.85
2022-11-24T22:58:06.124Z,1.88
2022-11-24T23:00:36.069Z,2.17
2022-11-24T23:03:06.221Z,2.17
2022-11-24T23:05:36.313Z,1.52
2022-11-24T23:08:06.610Z,1.80
2022-11-24T23:10:36.658Z,1.92
2022-11-24T23:13:06.757Z,1.88
2022-11-24T23:15:36.505Z,1.75
2022-11-24T23:18:06.449Z,1.73
2022-11-24T23:20:36.915Z,1.73
2022-11-24T23:23:06.911Z,1.55
2022-11-24T23:25:36.935Z,1.95
2022-11-24T23:28:06.693Z,2.75
2022-11-24T23:30:36.973Z,3.20
2022-11-24T23:33:06.539Z,4.05
2022-11-24T23:35:37.358Z,5.40
2022-11-24T23:38:07.945Z,5.53
2022-11-24T23:40:39.022Z,9.32
2022-11-24T23:43:08.605Z,4.88
2022-11-24T23:45:38.285Z,5.22
2022-11-24T23:48:09.685Z,5.47
2022-11-24T23:50:40.253Z,5.85
2022-11-24T23:53:09.745Z,5.22
2022-11-24T23:55:39.681Z,4.53
2022-11-24T23:58:09.689Z,4.93
